Huvudsida
METAR-TAF:

METAR-TAF

Flygplatser :

Decimomannu, Italien

latitud: 39-21N, longitud: 008-58E, höjd: 29 m

Aktuellt väderrapport

Denna rapport gjordes för 18 minuter sedan, klockan 22:55 UTC
Vind 1 kt från nord/nordost
Temperatur 9°C
Fuktighet 87%
Tryck 1008 hPa
Sikt 10 km eller mer
Få moln på en höjd av 2000 ft

METAR: LIED 152255Z 03001KT 9999 FEW020 09/07 Q1008 RMK SCT SCT180 VIS MIN 9999 WIND THR35 04002KT WIND THR17 /////KT BLU

Tid: 00:13 (23:13 UTC)

Väderprognos

Denna rapport gjordes för 3 timmar och 13 minuter sedan, klockan 20:00 UTC
Prognos gäller från 15 kl. 21 UTC till 16 kl. 06 UTC
Vind 2 kt varierande vindriktning
Sikt 10 km eller mer
Spridda moln på en höjd av 2000 ft

TAF: LIED 152000Z 1521/1606 VRB02KT 9999 SCT020

Aktuella väderrapporter och prognoser från 4000 flygplatser (METAR- och TAF-rapporter).

De tillgängliga stationerna syns som gula och röda prickar på kartan.

För musen över prickarna för att se namnen på stationerna.

Klicka sedan för att få väderrapporter och prognoser.

För att ändra kartan: Klicka på de gröna knapparna med ett svart kors på för att zooma in; den gröna knappen med ett streck på för att zooma ut; eller på de gröna pilarna för angränsande kartor.


METAR-TAF: